sensor_id;sensor_type;location;lat;lon;timestamp;pressure;altitude;pressure_sealevel;temperature;humidity
61961;BME280;47923;42.506;24.192;2023-05-21T00:00:09;95159.50;;;9.59;93.03
61961;BME280;47923;42.506;24.192;2023-05-21T00:02:37;95372.75;;;10.93;92.87
61961;BME280;47923;42.506;24.192;2023-05-21T00:05:03;95364.25;;;10.91;93.33
61961;BME280;47923;42.506;24.192;2023-05-21T00:07:29;95321.28;;;10.60;93.26
61961;BME280;47923;42.506;24.192;2023-05-21T00:09:56;95095.25;;;9.19;93.55
61961;BME280;47923;42.506;24.192;2023-05-21T00:12:21;95358.13;;;10.94;93.08
61961;BME280;47923;42.506;24.192;2023-05-21T00:14:47;95355.88;;;11.00;93.05
61961;BME280;47923;42.506;24.192;2023-05-21T00:17:12;95179.78;;;9.95;92.50
61961;BME280;47923;42.506;24.192;2023-05-21T00:19:38;95248.81;;;10.42;92.04
61961;BME280;47923;42.506;24.192;2023-05-21T00:22:04;95123.38;;;9.64;92.03
61961;BME280;47923;42.506;24.192;2023-05-21T00:24:30;95197.19;;;10.21;91.72
61961;BME280;47923;42.506;24.192;2023-05-21T00:26:55;95060.09;;;9.35;91.29
61961;BME280;47923;42.506;24.192;2023-05-21T00:29:21;95052.06;;;9.16;90.57
61961;BME280;47923;42.506;24.192;2023-05-21T00:31:47;95333.69;;;11.14;89.94
61961;BME280;47923;42.506;24.192;2023-05-21T00:34:15;95321.28;;;11.09;91.03
61961;BME280;47923;42.506;24.192;2023-05-21T00:36:40;95210.97;;;10.39;90.61
61961;BME280;47923;42.506;24.192;2023-05-21T00:39:10;95204.84;;;10.42;90.67
61961;BME280;47923;42.506;24.192;2023-05-21T00:41:36;95316.78;;;11.20;90.29
61961;BME280;47923;42.506;24.192;2023-05-21T00:44:08;95320.00;;;11.29;90.07
61961;BME280;47923;42.506;24.192;2023-05-21T00:46:33;95217.59;;;10.68;90.24
61961;BME280;47923;42.506;24.192;2023-05-21T00:48:59;95242.91;;;10.83;90.09
61961;BME280;47923;42.506;24.192;2023-05-21T00:51:25;95039.53;;;9.50;91.32
61961;BME280;47923;42.506;24.192;2023-05-21T00:53:54;95149.81;;;10.23;91.72
61961;BME280;47923;42.506;24.192;2023-05-21T00:56:22;95293.13;;;11.14;92.09
61961;BME280;47923;42.506;24.192;2023-05-21T00:58:49;95287.69;;;11.10;92.58
61961;BME280;47923;42.506;24.192;2023-05-21T01:01:16;95056.38;;;9.66;92.40
61961;BME280;47923;42.506;24.192;2023-05-21T01:03:42;95306.25;;;11.12;93.05
61961;BME280;47923;42.506;24.192;2023-05-21T01:06:09;95296.44;;;11.30;93.30
61961;BME280;47923;42.506;24.192;2023-05-21T01:08:36;94835.94;;;8.15;92.60
61961;BME280;47923;42.506;24.192;2023-05-21T01:11:04;95185.38;;;10.56;92.72
61961;BME280;47923;42.506;24.192;2023-05-21T01:13:31;95308.47;;;11.32;91.91
61961;BME280;47923;42.506;24.192;2023-05-21T01:15:58;95303.47;;;11.34;91.91
61961;BME280;47923;42.506;24.192;2023-05-21T01:18:24;95305.03;;;11.35;91.83
61961;BME280;47923;42.506;24.192;2023-05-21T01:20:50;95299.13;;;11.26;92.03
61961;BME280;47923;42.506;24.192;2023-05-21T01:23:18;95306.19;;;11.38;91.86
61961;BME280;47923;42.506;24.192;2023-05-21T01:25:44;95166.72;;;10.47;91.55
61961;BME280;47923;42.506;24.192;2023-05-21T01:28:10;95312.16;;;11.47;90.89
61961;BME280;47923;42.506;24.192;2023-05-21T01:30:37;95302.50;;;11.50;91.11
61961;BME280;47923;42.506;24.192;2023-05-21T01:38:53;95164.28;;;10.65;90.21
61961;BME280;47923;42.506;24.192;2023-05-21T01:41:22;95131.22;;;10.45;90.13
61961;BME280;47923;42.506;24.192;2023-05-21T01:43:50;95293.63;;;11.49;89.59
61961;BME280;47923;42.506;24.192;2023-05-21T01:46:20;95265.22;;;11.36;90.03
61961;BME280;47923;42.506;24.192;2023-05-21T01:48:48;95190.38;;;10.80;90.89
61961;BME280;47923;42.506;24.192;2023-05-21T01:51:15;95197.16;;;10.97;90.15
61961;BME280;47923;42.506;24.192;2023-05-21T01:53:40;95125.47;;;10.50;90.34
61961;BME280;47923;42.506;24.192;2023-05-21T01:56:06;95261.75;;;11.35;89.39
61961;BME280;47923;42.506;24.192;2023-05-21T01:58:32;95006.41;;;9.76;89.90
61961;BME280;47923;42.506;24.192;2023-05-21T02:00:57;95214.72;;;11.14;89.64
61961;BME280;47923;42.506;24.192;2023-05-21T02:03:25;95258.31;;;11.39;89.53
61961;BME280;47923;42.506;24.192;2023-05-21T02:05:51;95279.03;;;11.57;89.41
61961;BME280;47923;42.506;24.192;2023-05-21T02:08:17;95282.56;;;11.61;88.59
61961;BME280;47923;42.506;24.192;2023-05-21T02:10:44;95285.66;;;11.63;88.68
61961;BME280;47923;42.506;24.192;2023-05-21T02:13:10;95255.75;;;11.49;89.43
61961;BME280;47923;42.506;24.192;2023-05-21T02:15:35;95300.44;;;11.70;87.64
61961;BME280;47923;42.506;24.192;2023-05-21T02:18:01;95210.97;;;11.22;87.05
61961;BME280;47923;42.506;24.192;2023-05-21T02:20:26;95286.66;;;11.82;88.32
61961;BME280;47923;42.506;24.192;2023-05-21T02:22:52;95151.97;;;10.97;88.34
61961;BME280;47923;42.506;24.192;2023-05-21T02:25:18;95273.91;;;11.82;88.48
61961;BME280;47923;42.506;24.192;2023-05-21T02:27:46;95291.31;;;11.81;87.91
61961;BME280;47923;42.506;24.192;2023-05-21T02:30:13;95286.25;;;11.80;88.13
61961;BME280;47923;42.506;24.192;2023-05-21T02:32:39;95284.69;;;11.79;88.85
61961;BME280;47923;42.506;24.192;2023-05-21T02:35:10;95283.50;;;11.76;89.08
61961;BME280;47923;42.506;24.192;2023-05-21T02:37:36;95091.97;;;10.55;88.68
61961;BME280;47923;42.506;24.192;2023-05-21T02:40:03;95271.91;;;11.76;89.46
61961;BME280;47923;42.506;24.192;2023-05-21T02:42:30;95050.00;;;10.31;88.71
61961;BME280;47923;42.506;24.192;2023-05-21T02:44:56;95210.00;;;11.37;87.98
61961;BME280;47923;42.506;24.192;2023-05-21T02:47:21;95264.06;;;11.67;88.29
61961;BME280;47923;42.506;24.192;2023-05-21T02:49:49;95274.63;;;11.79;88.71
61961;BME280;47923;42.506;24.192;2023-05-21T02:52:15;95184.69;;;11.22;88.29
61961;BME280;47923;42.506;24.192;2023-05-21T02:54:43;95179.19;;;11.12;88.78
61961;BME280;47923;42.506;24.192;2023-05-21T02:57:08;95266.91;;;11.78;89.15
61961;BME280;47923;42.506;24.192;2023-05-21T02:59:34;94852.47;;;9.05;88.84
61961;BME280;47923;42.506;24.192;2023-05-21T03:01:59;95261.19;;;11.83;89.67
61961;BME280;47923;42.506;24.192;2023-05-21T03:04:25;95285.94;;;11.85;89.27
61961;BME280;47923;42.506;24.192;2023-05-21T03:06:52;95264.69;;;11.87;90.06
61961;BME280;47923;42.506;24.192;2023-05-21T03:09:22;95270.50;;;11.85;90.71
61961;BME280;47923;42.506;24.192;2023-05-21T03:11:51;95232.63;;;11.55;90.94
61961;BME280;47923;42.506;24.192;2023-05-21T03:14:17;95275.13;;;11.85;90.93
61961;BME280;47923;42.506;24.192;2023-05-21T03:16:42;95129.13;;;10.91;91.17
61961;BME280;47923;42.506;24.192;2023-05-21T03:19:09;95273.91;;;11.82;91.28
61961;BME280;47923;42.506;24.192;2023-05-21T03:21:35;95274.75;;;11.86;90.74
61961;BME280;47923;42.506;24.192;2023-05-21T03:24:02;95271.72;;;11.92;90.72
61961;BME280;47923;42.506;24.192;2023-05-21T03:26:28;95293.41;;;11.95;90.80
61961;BME280;47923;42.506;24.192;2023-05-21T03:28:55;95078.25;;;10.67;90.44
61961;BME280;47923;42.506;24.192;2023-05-21T03:31:24;95105.94;;;10.90;90.69
61961;BME280;47923;42.506;24.192;2023-05-21T03:33:49;95203.25;;;11.54;89.54
61961;BME280;47923;42.506;24.192;2023-05-21T03:36:15;95039.94;;;10.58;88.74
61961;BME280;47923;42.506;24.192;2023-05-21T03:38:41;95308.00;;;12.21;88.60
61961;BME280;47923;42.506;24.192;2023-05-21T03:41:07;95285.25;;;12.29;87.84
61961;BME280;47923;42.506;24.192;2023-05-21T03:43:33;95240.94;;;12.10;87.67
61961;BME280;47923;42.506;24.192;2023-05-21T03:45:58;95213.41;;;12.01;87.69
61961;BME280;47923;42.506;24.192;2023-05-21T03:48:24;95281.66;;;12.62;86.92
61961;BME280;47923;42.506;24.192;2023-05-21T03:50:49;95295.31;;;12.76;86.22
61961;BME280;47923;42.506;24.192;2023-05-21T03:53:15;94892.09;;;10.17;85.57
61961;BME280;47923;42.506;24.192;2023-05-21T03:55:41;95206.34;;;12.34;85.63
61961;BME280;47923;42.506;24.192;2023-05-21T03:58:07;95293.16;;;12.99;85.66
61961;BME280;47923;42.506;24.192;2023-05-21T04:00:33;95271.84;;;12.98;84.81
61961;BME280;47923;42.506;24.192;2023-05-21T04:03:02;95292.25;;;13.36;83.87
61961;BME280;47923;42.506;24.192;2023-05-21T04:05:27;95273.78;;;13.70;83.41
61961;BME280;47923;42.506;24.192;2023-05-21T04:07:53;95281.78;;;14.79;79.57
61961;BME280;47923;42.506;24.192;2023-05-21T04:10:18;95227.00;;;14.66;76.30
61961;BME280;47923;42.506;24.192;2023-05-21T04:12:43;95243.31;;;14.73;75.88
61961;BME280;47923;42.506;24.192;2023-05-21T04:15:10;95271.66;;;15.08;73.72
61961;BME280;47923;42.506;24.192;2023-05-21T04:17:36;95140.81;;;14.31;72.73
61961;BME280;47923;42.506;24.192;2023-05-21T04:20:02;95243.69;;;15.00;72.65
61961;BME280;47923;42.506;24.192;2023-05-21T04:22:28;95246.31;;;15.43;71.09
61961;BME280;47923;42.506;24.192;2023-05-21T04:24:53;95245.44;;;15.74;70.10
61961;BME280;47923;42.506;24.192;2023-05-21T04:27:22;95274.56;;;17.03;65.69
61961;BME280;47923;42.506;24.192;2023-05-21T04:29:48;95018.69;;;15.60;63.62
61961;BME280;47923;42.506;24.192;2023-05-21T04:32:14;95268.72;;;18.91;60.56
61961;BME280;47923;42.506;24.192;2023-05-21T04:34:42;95287.31;;;20.26;53.08
61961;BME280;47923;42.506;24.192;2023-05-21T04:37:08;95270.44;;;20.28;52.20
61961;BME280;47923;42.506;24.192;2023-05-21T04:39:34;95263.22;;;21.03;49.68
61961;BME280;47923;42.506;24.192;2023-05-21T04:42:01;95218.63;;;21.86;45.01
61961;BME280;47923;42.506;24.192;2023-05-21T04:44:28;95258.66;;;24.18;42.09
61961;BME280;47923;42.506;24.192;2023-05-21T04:46:53;95007.09;;;24.38;36.91
61961;BME280;47923;42.506;24.192;2023-05-21T04:49:19;95208.16;;;27.25;33.95
61961;BME280;47923;42.506;24.192;2023-05-21T04:51:45;95192.50;;;27.52;32.79
61961;BME280;47923;42.506;24.192;2023-05-21T04:54:11;95182.84;;;29.41;30.74
61961;BME280;47923;42.506;24.192;2023-05-21T04:56:36;95168.53;;;29.28;28.54
61961;BME280;47923;42.506;24.192;2023-05-21T04:59:02;95222.78;;;27.65;32.94
61961;BME280;47923;42.506;24.192;2023-05-21T05:01:28;95095.03;;;27.44;31.51
61961;BME280;47923;42.506;24.192;2023-05-21T05:03:54;95238.59;;;29.93;28.54
61961;BME280;47923;42.506;24.192;2023-05-21T05:06:20;94877.81;;;28.55;28.38
61961;BME280;47923;42.506;24.192;2023-05-21T05:08:46;95201.34;;;29.04;30.11
61961;BME280;47923;42.506;24.192;2023-05-21T05:11:12;95253.06;;;30.75;27.66
61961;BME280;47923;42.506;24.192;2023-05-21T05:13:39;95223.91;;;30.45;28.45
61961;BME280;47923;42.506;24.192;2023-05-21T05:16:06;95196.06;;;29.47;30.13
61961;BME280;47923;42.506;24.192;2023-05-21T05:18:32;95195.56;;;28.37;31.48
61961;BME280;47923;42.506;24.192;2023-05-21T05:20:58;95243.91;;;27.86;31.51
61961;BME280;47923;42.506;24.192;2023-05-21T05:23:24;95242.88;;;28.57;31.14
61961;BME280;47923;42.506;24.192;2023-05-21T05:25:49;95176.88;;;29.69;28.44
61961;BME280;47923;42.506;24.192;2023-05-21T05:28:15;95236.28;;;32.77;26.08
61961;BME280;47923;42.506;24.192;2023-05-21T05:30:40;95235.13;;;34.46;23.35
61961;BME280;47923;42.506;24.192;2023-05-21T05:33:06;95241.91;;;35.65;23.05
61961;BME280;47923;42.506;24.192;2023-05-21T05:35:31;95070.66;;;33.94;22.00
61961;BME280;47923;42.506;24.192;2023-05-21T05:37:57;95240.72;;;33.47;24.34
61961;BME280;47923;42.506;24.192;2023-05-21T05:40:22;95243.75;;;34.13;23.65
61961;BME280;47923;42.506;24.192;2023-05-21T05:42:48;95127.44;;;34.60;22.36
61961;BME280;47923;42.506;24.192;2023-05-21T05:45:17;95143.53;;;34.79;19.85
61961;BME280;47923;42.506;24.192;2023-05-21T05:47:42;95052.06;;;32.06;22.84
61961;BME280;47923;42.506;24.192;2023-05-21T05:50:08;95244.00;;;31.77;24.79
61961;BME280;47923;42.506;24.192;2023-05-21T05:52:34;95127.78;;;29.45;26.28
61961;BME280;47923;42.506;24.192;2023-05-21T05:54:59;95146.75;;;29.67;26.96
61961;BME280;47923;42.506;24.192;2023-05-21T05:57:25;95247.84;;;31.85;25.44
61961;BME280;47923;42.506;24.192;2023-05-21T05:59:50;95179.09;;;34.35;21.00
61961;BME280;47923;42.506;24.192;2023-05-21T06:02:16;95202.78;;;33.51;22.08
61961;BME280;47923;42.506;24.192;2023-05-21T06:04:41;95182.41;;;30.52;23.75
61961;BME280;47923;42.506;24.192;2023-05-21T06:07:07;95249.88;;;29.03;25.79
61961;BME280;47923;42.506;24.192;2023-05-21T06:09:32;95242.38;;;28.59;26.64
61961;BME280;47923;42.506;24.192;2023-05-21T06:11:58;94960.19;;;25.77;27.66
61961;BME280;47923;42.506;24.192;2023-05-21T06:14:23;95217.66;;;27.00;30.02
61961;BME280;47923;42.506;24.192;2023-05-21T06:16:49;95254.25;;;26.29;29.47
61961;BME280;47923;42.506;24.192;2023-05-21T06:19:14;95249.47;;;25.78;28.32
61961;BME280;47923;42.506;24.192;2023-05-21T06:21:39;95255.78;;;26.49;27.25
61961;BME280;47923;42.506;24.192;2023-05-21T06:24:05;95007.38;;;24.31;28.04
61961;BME280;47923;42.506;24.192;2023-05-21T06:26:31;95184.75;;;25.57;27.04
61961;BME280;47923;42.506;24.192;2023-05-21T06:28:56;95149.13;;;25.23;26.55
61961;BME280;47923;42.506;24.192;2023-05-21T06:31:22;95248.56;;;26.33;26.25
61961;BME280;47923;42.506;24.192;2023-05-21T06:33:48;95180.41;;;27.25;24.53
61961;BME280;47923;42.506;24.192;2023-05-21T06:36:14;95242.75;;;26.40;25.83
61961;BME280;47923;42.506;24.192;2023-05-21T06:38:40;95276.31;;;25.69;27.02
61961;BME280;47923;42.506;24.192;2023-05-21T06:41:07;95146.50;;;24.33;27.41
61961;BME280;47923;42.506;24.192;2023-05-21T06:43:32;95007.81;;;22.65;29.13
61961;BME280;47923;42.506;24.192;2023-05-21T06:45:58;95273.47;;;23.67;30.71
61961;BME280;47923;42.506;24.192;2023-05-21T06:48:23;95227.97;;;23.50;30.77
61961;BME280;47923;42.506;24.192;2023-05-21T06:50:48;95074.00;;;22.61;31.29
61961;BME280;47923;42.506;24.192;2023-05-21T06:53:14;95122.94;;;22.31;31.52
61961;BME280;47923;42.506;24.192;2023-05-21T06:55:41;95272.63;;;23.23;31.49
61961;BME280;47923;42.506;24.192;2023-05-21T06:58:10;95063.41;;;22.25;31.89
61961;BME280;47923;42.506;24.192;2023-05-21T07:00:36;95290.13;;;23.64;31.04
61961;BME280;47923;42.506;24.192;2023-05-21T07:03:01;94992.81;;;22.44;30.67
61961;BME280;47923;42.506;24.192;2023-05-21T07:05:27;95275.78;;;24.75;29.90
61961;BME280;47923;42.506;24.192;2023-05-21T07:07:52;95218.53;;;23.38;30.64
61961;BME280;47923;42.506;24.192;2023-05-21T07:10:18;94967.13;;;21.39;31.68
61961;BME280;47923;42.506;24.192;2023-05-21T07:12:43;95202.16;;;22.87;31.76
61961;BME280;47923;42.506;24.192;2023-05-21T07:15:09;95162.41;;;21.87;34.42
61961;BME280;47923;42.506;24.192;2023-05-21T07:17:34;95299.19;;;22.53;35.95
61961;BME280;47923;42.506;24.192;2023-05-21T07:20:02;95310.63;;;22.52;36.31
61961;BME280;47923;42.506;24.192;2023-05-21T07:22:29;95163.47;;;20.77;38.44
61961;BME280;47923;42.506;24.192;2023-05-21T07:24:55;95313.50;;;21.00;40.91
61961;BME280;47923;42.506;24.192;2023-05-21T07:27:20;95252.41;;;20.27;40.86
61961;BME280;47923;42.506;24.192;2023-05-21T07:29:46;95320.22;;;20.46;42.11
61961;BME280;47923;42.506;24.192;2023-05-21T07:32:11;95290.16;;;20.39;43.76
61961;BME280;47923;42.506;24.192;2023-05-21T07:34:37;95318.97;;;20.31;45.72
61961;BME280;47923;42.506;24.192;2023-05-21T07:37:02;95315.72;;;20.36;46.65
61961;BME280;47923;42.506;24.192;2023-05-21T07:39:28;95268.38;;;19.96;47.34
61961;BME280;47923;42.506;24.192;2023-05-21T07:41:53;95329.50;;;20.32;47.76
61961;BME280;47923;42.506;24.192;2023-05-21T07:44:18;95183.56;;;19.49;48.50
61961;BME280;47923;42.506;24.192;2023-05-21T07:46:44;95330.88;;;20.60;50.40
61961;BME280;47923;42.506;24.192;2023-05-21T07:49:10;95329.03;;;20.74;48.89
61961;BME280;47923;42.506;24.192;2023-05-21T07:51:43;94799.47;;;17.64;48.96
61961;BME280;47923;42.506;24.192;2023-05-21T07:54:09;94984.56;;;18.86;50.50
61961;BME280;47923;42.506;24.192;2023-05-21T07:56:35;95304.66;;;20.76;51.54
61961;BME280;47923;42.506;24.192;2023-05-21T07:59:00;95307.94;;;20.87;52.46
61961;BME280;47923;42.506;24.192;2023-05-21T08:01:26;95308.34;;;20.69;51.62
61961;BME280;47923;42.506;24.192;2023-05-21T08:03:54;95304.97;;;20.61;52.10
61961;BME280;47923;42.506;24.192;2023-05-21T08:06:19;95308.78;;;20.67;51.98
61961;BME280;47923;42.506;24.192;2023-05-21T08:08:46;95211.81;;;20.38;47.48
61961;BME280;47923;42.506;24.192;2023-05-21T08:11:14;95175.91;;;20.81;46.31
61961;BME280;47923;42.506;24.192;2023-05-21T08:13:39;95208.06;;;21.84;44.08
61961;BME280;47923;42.506;24.192;2023-05-21T08:16:05;95298.38;;;24.20;41.49
61961;BME280;47923;42.506;24.192;2023-05-21T08:18:30;95309.69;;;24.66;38.05
61961;BME280;47923;42.506;24.192;2023-05-21T08:20:56;95294.94;;;25.00;37.17
61961;BME280;47923;42.506;24.192;2023-05-21T08:23:21;95290.44;;;25.43;35.20
61961;BME280;47923;42.506;24.192;2023-05-21T08:25:47;95234.34;;;25.61;34.23
61961;BME280;47923;42.506;24.192;2023-05-21T08:28:12;95121.06;;;25.85;31.12
61961;BME280;47923;42.506;24.192;2023-05-21T08:30:38;95136.47;;;27.48;28.73
61961;BME280;47923;42.506;24.192;2023-05-21T08:33:03;95269.16;;;29.27;26.58
61961;BME280;47923;42.506;24.192;2023-05-21T08:35:29;95275.75;;;29.64;24.10
61961;BME280;47923;42.506;24.192;2023-05-21T08:37:54;95301.09;;;32.41;22.96
61961;BME280;47923;42.506;24.192;2023-05-21T08:40:20;95286.75;;;34.21;19.98
61961;BME280;47923;42.506;24.192;2023-05-21T08:42:48;95160.53;;;35.35;19.44
61961;BME280;47923;42.506;24.192;2023-05-21T08:45:37;95242.59;;;38.38;16.68
61961;BME280;47923;42.506;24.192;2023-05-21T08:48:12;95261.28;;;39.53;14.57
61961;BME280;47923;42.506;24.192;2023-05-21T08:50:41;95278.78;;;40.24;13.92
61961;BME280;47923;42.506;24.192;2023-05-21T08:53:21;95264.19;;;37.61;14.77
61961;BME280;47923;42.506;24.192;2023-05-21T08:56:07;95270.84;;;35.79;15.96
61961;BME280;47923;42.506;24.192;2023-05-21T08:58:34;95267.91;;;34.93;17.50
61961;BME280;47923;42.506;24.192;2023-05-21T09:01:01;95149.72;;;35.64;15.96
61961;BME280;47923;42.506;24.192;2023-05-21T09:03:29;95266.00;;;37.99;15.36
61961;BME280;47923;42.506;24.192;2023-05-21T09:05:56;95124.06;;;35.54;15.79
61961;BME280;47923;42.506;24.192;2023-05-21T09:08:26;95270.50;;;35.15;16.24
61961;BME280;47923;42.506;24.192;2023-05-21T09:10:53;95208.38;;;34.45;16.69
61961;BME280;47923;42.506;24.192;2023-05-21T09:13:19;95266.00;;;34.76;17.49
61961;BME280;47923;42.506;24.192;2023-05-21T09:15:46;95172.31;;;34.25;17.48
61961;BME280;47923;42.506;24.192;2023-05-21T09:18:12;95166.81;;;32.97;16.85
61961;BME280;47923;42.506;24.192;2023-05-21T09:20:39;95236.19;;;33.38;16.19
61961;BME280;47923;42.506;24.192;2023-05-21T09:23:06;95260.25;;;35.91;15.29
61961;BME280;47923;42.506;24.192;2023-05-21T09:25:37;95157.84;;;36.83;13.98
61961;BME280;47923;42.506;24.192;2023-05-21T09:28:09;95247.94;;;37.41;14.40
61961;BME280;47923;42.506;24.192;2023-05-21T09:30:35;95181.47;;;35.96;16.01
61961;BME280;47923;42.506;24.192;2023-05-21T09:33:00;95252.28;;;35.27;16.80
61961;BME280;47923;42.506;24.192;2023-05-21T09:35:27;95204.47;;;34.84;17.34
61961;BME280;47923;42.506;24.192;2023-05-21T09:37:54;95265.44;;;36.43;16.65
61961;BME280;47923;42.506;24.192;2023-05-21T09:40:22;95047.81;;;36.28;15.28
61961;BME280;47923;42.506;24.192;2023-05-21T09:42:54;95253.75;;;35.34;17.12
61961;BME280;47923;42.506;24.192;2023-05-21T09:45:23;95252.38;;;35.65;16.85
61961;BME280;47923;42.506;24.192;2023-05-21T09:47:50;95265.06;;;35.71;16.48
61961;BME280;47923;42.506;24.192;2023-05-21T09:50:21;95134.75;;;36.58;15.19
61961;BME280;47923;42.506;24.192;2023-05-21T09:52:47;95250.41;;;38.19;15.31
61961;BME280;47923;42.506;24.192;2023-05-21T09:55:15;95238.97;;;38.03;14.91
61961;BME280;47923;42.506;24.192;2023-05-21T09:57:45;95192.56;;;36.08;15.63
61961;BME280;47923;42.506;24.192;2023-05-21T10:00:19;95222.47;;;33.93;16.85
61961;BME280;47923;42.506;24.192;2023-05-21T10:02:47;95249.44;;;32.31;18.55
61961;BME280;47923;42.506;24.192;2023-05-21T10:05:14;95250.94;;;32.15;19.20
61961;BME280;47923;42.506;24.192;2023-05-21T10:07:50;95100.34;;;30.16;19.67
61961;BME280;47923;42.506;24.192;2023-05-21T10:10:20;95177.19;;;31.62;19.33
61961;BME280;47923;42.506;24.192;2023-05-21T10:13:04;95141.72;;;31.20;18.39
61961;BME280;47923;42.506;24.192;2023-05-21T10:15:48;95221.78;;;32.50;18.25
61961;BME280;47923;42.506;24.192;2023-05-21T10:18:16;95240.59;;;32.66;17.60
61961;BME280;47923;42.506;24.192;2023-05-21T10:20:43;95253.75;;;31.50;18.73
61961;BME280;47923;42.506;24.192;2023-05-21T10:23:10;95151.34;;;28.89;19.69
61961;BME280;47923;42.506;24.192;2023-05-21T10:25:37;95182.22;;;28.26;19.91
61961;BME280;47923;42.506;24.192;2023-05-21T10:28:03;95249.34;;;27.80;21.41
61961;BME280;47923;42.506;24.192;2023-05-21T10:30:31;95244.50;;;27.66;21.60
61961;BME280;47923;42.506;24.192;2023-05-21T10:32:57;95191.94;;;26.76;22.98
61961;BME280;47923;42.506;24.192;2023-05-21T10:35:24;95034.50;;;25.51;23.48
61961;BME280;47923;42.506;24.192;2023-05-21T10:37:50;95250.88;;;26.43;23.54
61961;BME280;47923;42.506;24.192;2023-05-21T10:40:15;95195.78;;;25.67;24.99
61961;BME280;47923;42.506;24.192;2023-05-21T10:43:07;95251.56;;;25.56;25.43
61961;BME280;47923;42.506;24.192;2023-05-21T10:48:38;95196.69;;;24.99;25.60
61961;BME280;47923;42.506;24.192;2023-05-21T10:59:46;95150.19;;;25.16;25.18
61961;BME280;47923;42.506;24.192;2023-05-21T11:02:13;95249.59;;;25.66;27.36
61961;BME280;47923;42.506;24.192;2023-05-21T11:04:40;95239.13;;;25.51;27.51
61961;BME280;47923;42.506;24.192;2023-05-21T11:07:11;95236.50;;;25.48;29.14
61961;BME280;47923;42.506;24.192;2023-05-21T11:09:37;95237.59;;;25.50;29.17
61961;BME280;47923;42.506;24.192;2023-05-21T11:12:03;95235.44;;;25.45;29.26
61961;BME280;47923;42.506;24.192;2023-05-21T11:14:39;95243.03;;;24.95;30.75
61961;BME280;47923;42.506;24.192;2023-05-21T11:19:43;95229.00;;;24.71;30.12
61961;BME280;47923;42.506;24.192;2023-05-21T11:22:25;95217.50;;;24.73;30.06
61961;BME280;47923;42.506;24.192;2023-05-21T11:24:53;95232.81;;;25.05;30.39
61961;BME280;47923;42.506;24.192;2023-05-21T11:29:57;95224.41;;;24.77;30.48
61961;BME280;47923;42.506;24.192;2023-05-21T11:32:24;95225.00;;;24.72;30.63
61961;BME280;47923;42.506;24.192;2023-05-21T11:34:49;95200.88;;;24.55;30.55
61961;BME280;47923;42.506;24.192;2023-05-21T11:39:44;95083.78;;;24.43;29.56
61961;BME280;47923;42.506;24.192;2023-05-21T11:42:09;95222.06;;;25.25;29.66
61961;BME280;47923;42.506;24.192;2023-05-21T11:44:43;95216.34;;;24.52;29.89
61961;BME280;47923;42.506;24.192;2023-05-21T11:47:09;95219.88;;;23.68;31.81
61961;BME280;47923;42.506;24.192;2023-05-21T11:49:35;95089.00;;;22.47;32.96
61961;BME280;47923;42.506;24.192;2023-05-21T11:52:03;95236.38;;;23.12;32.94
61961;BME280;47923;42.506;24.192;2023-05-21T11:54:30;95244.47;;;22.94;32.84
61961;BME280;47923;42.506;24.192;2023-05-21T11:57:01;95230.91;;;22.99;32.89
61961;BME280;47923;42.506;24.192;2023-05-21T11:59:30;95200.94;;;22.88;33.06
61961;BME280;47923;42.506;24.192;2023-05-21T12:01:57;95206.56;;;22.72;33.73
61961;BME280;47923;42.506;24.192;2023-05-21T12:04:27;95120.75;;;22.26;33.78
61961;BME280;47923;42.506;24.192;2023-05-21T12:06:54;95057.47;;;22.01;33.07
61961;BME280;47923;42.506;24.192;2023-05-21T12:09:19;95222.06;;;23.39;33.58
61961;BME280;47923;42.506;24.192;2023-05-21T12:11:45;95222.75;;;23.65;32.89
61961;BME280;47923;42.506;24.192;2023-05-21T12:14:11;95222.38;;;23.76;32.74
61961;BME280;47923;42.506;24.192;2023-05-21T12:16:38;95220.63;;;23.69;32.77
61961;BME280;47923;42.506;24.192;2023-05-21T12:19:04;95105.84;;;22.84;32.54
61961;BME280;47923;42.506;24.192;2023-05-21T12:21:30;95219.50;;;23.23;32.60
61961;BME280;47923;42.506;24.192;2023-05-21T12:23:57;94956.81;;;21.31;33.10
61961;BME280;47923;42.506;24.192;2023-05-21T12:26:24;95219.09;;;22.99;33.12
61961;BME280;47923;42.506;24.192;2023-05-21T12:29:01;95213.59;;;23.33;33.17
61961;BME280;47923;42.506;24.192;2023-05-21T12:31:31;95028.47;;;22.13;32.61
61961;BME280;47923;42.506;24.192;2023-05-21T12:33:57;95217.19;;;23.21;33.15
61961;BME280;47923;42.506;24.192;2023-05-21T12:36:26;95223.75;;;23.58;32.40
61961;BME280;47923;42.506;24.192;2023-05-21T12:38:52;95057.47;;;22.61;32.28
61961;BME280;47923;42.506;24.192;2023-05-21T12:41:18;95099.38;;;23.12;32.58
61961;BME280;47923;42.506;24.192;2023-05-21T12:43:44;95204.25;;;23.96;31.79
61961;BME280;47923;42.506;24.192;2023-05-21T12:46:11;94998.06;;;22.51;31.14
61961;BME280;47923;42.506;24.192;2023-05-21T12:48:39;95127.94;;;23.50;31.33
61961;BME280;47923;42.506;24.192;2023-05-21T12:51:07;95198.03;;;24.05;31.33
61961;BME280;47923;42.506;24.192;2023-05-21T12:53:40;95201.31;;;24.22;31.56
61961;BME280;47923;42.506;24.192;2023-05-21T12:56:08;95218.59;;;24.13;31.21
61961;BME280;47923;42.506;24.192;2023-05-21T12:58:33;95175.84;;;23.65;31.88
61961;BME280;47923;42.506;24.192;2023-05-21T13:00:59;95095.25;;;22.60;33.46
61961;BME280;47923;42.506;24.192;2023-05-21T13:03:25;95197.91;;;23.21;33.32
61961;BME280;47923;42.506;24.192;2023-05-21T13:05:58;95197.78;;;23.12;33.80
61961;BME280;47923;42.506;24.192;2023-05-21T13:08:23;95079.03;;;22.28;34.12
61961;BME280;47923;42.506;24.192;2023-05-21T13:10:49;95204.16;;;22.87;34.28
61961;BME280;47923;42.506;24.192;2023-05-21T13:13:14;95092.25;;;22.20;33.91